CHH715 ZBAD-ZUCK
Flight info
| Callsign | CHH715 |
|---|---|
| Flight time | 2h 8m |
| Altitude | 38100 |
| Route | PEGSO7F PEGSO B215 GODON W43 SAVPA W276 AVDIG W666 VINEX VINEX1J |
| Aircraft | A20N/M-SDE2E3FGHIRWXY/LB1 |
Departure
| Time | 2026-04-30 02:55 |
|---|---|
| Airport | Beijing Daxing International Airport (ZBAD) |
Arrival
| Time | 2026-04-30 05:03 |
|---|---|
| Airport | Chongqing Jiangbei International Airport (ZUCK) |
| Time | Latitude | Longitude | Altitude | Speed | Heading |
|---|---|---|---|---|---|
| 2026-04-30 02:33 | 39.50446 | 116.40340 | 108 ft | 0 kts | 232° |
| 2026-04-30 02:43 | 39.50454 | 116.40351 | 108 ft | 2 kts | 233° |
| 2026-04-30 02:43 | 39.50463 | 116.40369 | 106 ft | 2 kts | 235° |
| 2026-04-30 02:43 | 39.50473 | 116.40386 | 107 ft | 2 kts | 234° |
| 2026-04-30 02:44 | 39.50482 | 116.40403 | 108 ft | 2 kts | 233° |
| 2026-04-30 02:44 | 39.50489 | 116.40422 | 106 ft | 2 kts | 267° |
| 2026-04-30 02:44 | 39.50488 | 116.40443 | 105 ft | 2 kts | 285° |
| 2026-04-30 02:44 | 39.50482 | 116.40462 | 106 ft | 2 kts | 313° |
| 2026-04-30 02:45 | 39.50478 | 116.40467 | 105 ft | 0 kts | 323° |
| 2026-04-30 02:46 | 39.50480 | 116.40465 | 106 ft | 2 kts | 323° |
| 2026-04-30 02:46 | 39.50517 | 116.40427 | 108 ft | 11 kts | 322° |
| 2026-04-30 02:46 | 39.50595 | 116.40351 | 107 ft | 16 kts | 323° |
| 2026-04-30 02:47 | 39.50647 | 116.40253 | 108 ft | 13 kts | 259° |
| 2026-04-30 02:47 | 39.50635 | 116.40126 | 108 ft | 15 kts | 263° |
| 2026-04-30 02:47 | 39.50641 | 116.40041 | 108 ft | 10 kts | 306° |
| 2026-04-30 02:47 | 39.50702 | 116.40011 | 108 ft | 0 kts | 352° |
| 2026-04-30 02:48 | 39.50718 | 116.40009 | 108 ft | 5 kts | 352° |
| 2026-04-30 02:48 | 39.50765 | 116.40000 | 107 ft | 9 kts | 352° |
| 2026-04-30 02:48 | 39.50842 | 116.39987 | 107 ft | 13 kts | 352° |
| 2026-04-30 02:48 | 39.50941 | 116.39971 | 107 ft | 14 kts | 353° |
| 2026-04-30 02:49 | 39.50949 | 116.39970 | 107 ft | 0 kts | 354° |
| 2026-04-30 02:51 | 39.50964 | 116.39967 | 107 ft | 7 kts | 354° |
| 2026-04-30 02:51 | 39.51054 | 116.39955 | 107 ft | 17 kts | 353° |
| 2026-04-30 02:52 | 39.51187 | 116.39935 | 107 ft | 21 kts | 353° |
| 2026-04-30 02:52 | 39.51339 | 116.39912 | 108 ft | 23 kts | 353° |
| 2026-04-30 02:52 | 39.51502 | 116.39885 | 108 ft | 24 kts | 352° |
| 2026-04-30 02:52 | 39.51659 | 116.39860 | 109 ft | 19 kts | 352° |
| 2026-04-30 02:53 | 39.51773 | 116.39838 | 108 ft | 13 kts | 338° |
| 2026-04-30 02:53 | 39.51796 | 116.39788 | 108 ft | 0 kts | 272° |
| 2026-04-30 02:53 | 39.51796 | 116.39764 | 108 ft | 6 kts | 266° |
| 2026-04-30 02:54 | 39.51774 | 116.39682 | 108 ft | 12 kts | 233° |
| 2026-04-30 02:54 | 39.51689 | 116.39634 | 109 ft | 15 kts | 183° |
| 2026-04-30 02:54 | 39.51575 | 116.39646 | 109 ft | 18 kts | 173° |
| 2026-04-30 02:54 | 39.51384 | 116.39673 | 108 ft | 47 kts | 173° |
| 2026-04-30 02:55 | 39.50833 | 116.39764 | 107 ft | 109 kts | 173° |
| 2026-04-30 02:55 | 39.49923 | 116.39909 | 110 ft | 151 kts | 173° |
| 2026-04-30 02:55 | 39.48860 | 116.40075 | 520 ft | 156 kts | 175° |
| 2026-04-30 02:55 | 39.47746 | 116.40228 | 1000 ft | 162 kts | 174° |
| 2026-04-30 02:56 | 39.46660 | 116.40392 | 1650 ft | 157 kts | 174° |
| 2026-04-30 02:56 | 39.45533 | 116.40564 | 2158 ft | 172 kts | 175° |
| 2026-04-30 02:56 | 39.44270 | 116.40750 | 2634 ft | 194 kts | 175° |
| 2026-04-30 02:56 | 39.42833 | 116.40962 | 3095 ft | 221 kts | 175° |
| 2026-04-30 02:57 | 39.41233 | 116.41203 | 3737 ft | 243 kts | 174° |
| 2026-04-30 02:57 | 39.39475 | 116.41483 | 4407 ft | 265 kts | 174° |
| 2026-04-30 02:57 | 39.37606 | 116.41785 | 5320 ft | 274 kts | 173° |
| 2026-04-30 02:57 | 39.35692 | 116.41885 | 6345 ft | 279 kts | 190° |
| 2026-04-30 02:58 | 39.33874 | 116.40974 | 7209 ft | 285 kts | 216° |
| 2026-04-30 02:58 | 39.32484 | 116.39152 | 7654 ft | 287 kts | 238° |
| 2026-04-30 02:58 | 39.31501 | 116.36906 | 7817 ft | 286 kts | 246° |
| 2026-04-30 02:58 | 39.30651 | 116.34616 | 7867 ft | 287 kts | 247° |
| 2026-04-30 02:59 | 39.29783 | 116.32305 | 7864 ft | 286 kts | 246° |
| 2026-04-30 02:59 | 39.28877 | 116.30020 | 7880 ft | 286 kts | 244° |
| 2026-04-30 02:59 | 39.27942 | 116.27751 | 7872 ft | 287 kts | 244° |
| 2026-04-30 02:59 | 39.26987 | 116.25495 | 7880 ft | 286 kts | 243° |
| 2026-04-30 03:00 | 39.26017 | 116.23234 | 7862 ft | 287 kts | 243° |
| 2026-04-30 03:00 | 39.25050 | 116.20982 | 7868 ft | 287 kts | 243° |
| 2026-04-30 03:00 | 39.24082 | 116.18728 | 7863 ft | 286 kts | 243° |
| 2026-04-30 03:00 | 39.23117 | 116.16477 | 7861 ft | 287 kts | 243° |
| 2026-04-30 03:01 | 39.22150 | 116.14228 | 7868 ft | 287 kts | 243° |
| 2026-04-30 03:01 | 39.21181 | 116.11974 | 7865 ft | 287 kts | 243° |
| 2026-04-30 03:01 | 39.20211 | 116.09720 | 7862 ft | 287 kts | 243° |
| 2026-04-30 03:01 | 39.19250 | 116.07483 | 8014 ft | 290 kts | 243° |
| 2026-04-30 03:02 | 39.18264 | 116.05193 | 8686 ft | 294 kts | 243° |
| 2026-04-30 03:02 | 39.17270 | 116.02884 | 9789 ft | 295 kts | 244° |
| 2026-04-30 03:02 | 39.16257 | 116.00531 | 10528 ft | 310 kts | 244° |
| 2026-04-30 03:02 | 39.15171 | 115.98003 | 10889 ft | 334 kts | 243° |
| 2026-04-30 03:03 | 39.14008 | 115.95306 | 11374 ft | 352 kts | 243° |
| 2026-04-30 03:03 | 39.11579 | 115.89716 | 13054 ft | 363 kts | 243° |
| 2026-04-30 03:03 | 39.10334 | 115.86853 | 13894 ft | 369 kts | 243° |
| 2026-04-30 03:04 | 39.09070 | 115.83946 | 14664 ft | 374 kts | 243° |
| 2026-04-30 03:04 | 39.07790 | 115.81005 | 15397 ft | 379 kts | 243° |
| 2026-04-30 03:04 | 39.06490 | 115.78020 | 16129 ft | 385 kts | 243° |
| 2026-04-30 03:04 | 39.05170 | 115.74989 | 16871 ft | 390 kts | 243° |
| 2026-04-30 03:05 | 39.03851 | 115.71965 | 17588 ft | 395 kts | 244° |
| 2026-04-30 03:05 | 39.02493 | 115.68854 | 18308 ft | 401 kts | 244° |
| 2026-04-30 03:05 | 39.01121 | 115.65715 | 18945 ft | 405 kts | 244° |
| 2026-04-30 03:05 | 38.99736 | 115.62548 | 19588 ft | 409 kts | 244° |
| 2026-04-30 03:06 | 38.98332 | 115.59342 | 20221 ft | 413 kts | 244° |
| 2026-04-30 03:06 | 38.96916 | 115.56110 | 20850 ft | 417 kts | 244° |
| 2026-04-30 03:06 | 38.95484 | 115.52848 | 21465 ft | 421 kts | 244° |
| 2026-04-30 03:06 | 38.94099 | 115.49520 | 22099 ft | 423 kts | 249° |
| 2026-04-30 03:07 | 38.92892 | 115.46058 | 22703 ft | 427 kts | 249° |
| 2026-04-30 03:07 | 38.91677 | 115.42564 | 23311 ft | 431 kts | 250° |
| 2026-04-30 03:07 | 38.90445 | 115.39036 | 23877 ft | 434 kts | 249° |
| 2026-04-30 03:07 | 38.89205 | 115.35495 | 24404 ft | 437 kts | 249° |
| 2026-04-30 03:08 | 38.87952 | 115.31926 | 24936 ft | 439 kts | 249° |
| 2026-04-30 03:08 | 38.86689 | 115.28335 | 25449 ft | 442 kts | 249° |
| 2026-04-30 03:08 | 38.85434 | 115.24768 | 25950 ft | 445 kts | 249° |
| 2026-04-30 03:08 | 38.84154 | 115.21138 | 26438 ft | 447 kts | 249° |
| 2026-04-30 03:09 | 38.82868 | 115.17494 | 26948 ft | 450 kts | 249° |
| 2026-04-30 03:09 | 38.81570 | 115.13820 | 27398 ft | 452 kts | 249° |
| 2026-04-30 03:09 | 38.80266 | 115.10133 | 27863 ft | 455 kts | 249° |
| 2026-04-30 03:09 | 38.78954 | 115.06431 | 28314 ft | 457 kts | 249° |
| 2026-04-30 03:10 | 38.77634 | 115.02708 | 28736 ft | 460 kts | 249° |
| 2026-04-30 03:10 | 38.76306 | 114.98967 | 29156 ft | 462 kts | 249° |
| 2026-04-30 03:10 | 38.74985 | 114.95250 | 29562 ft | 464 kts | 249° |
| 2026-04-30 03:10 | 38.73645 | 114.91481 | 29962 ft | 466 kts | 249° |
| 2026-04-30 03:11 | 38.72294 | 114.87682 | 30310 ft | 469 kts | 249° |
| 2026-04-30 03:11 | 38.70939 | 114.83876 | 30657 ft | 471 kts | 249° |
| 2026-04-30 03:11 | 38.69576 | 114.80055 | 31006 ft | 473 kts | 249° |
| 2026-04-30 03:11 | 38.68201 | 114.76205 | 31400 ft | 474 kts | 249° |
| 2026-04-30 03:12 | 38.66831 | 114.72378 | 31830 ft | 473 kts | 249° |
| 2026-04-30 03:12 | 38.65476 | 114.68597 | 32262 ft | 472 kts | 249° |
| 2026-04-30 03:12 | 38.64105 | 114.64774 | 32701 ft | 472 kts | 249° |
| 2026-04-30 03:12 | 38.62738 | 114.60967 | 33141 ft | 471 kts | 249° |
| 2026-04-30 03:13 | 38.61368 | 114.57163 | 33565 ft | 470 kts | 249° |
| 2026-04-30 03:13 | 38.59991 | 114.53373 | 33971 ft | 469 kts | 249° |
| 2026-04-30 03:13 | 38.58614 | 114.49591 | 34340 ft | 468 kts | 249° |
| 2026-04-30 03:13 | 38.57248 | 114.45826 | 34709 ft | 466 kts | 249° |
| 2026-04-30 03:14 | 38.55891 | 114.42079 | 35094 ft | 463 kts | 249° |
| 2026-04-30 03:14 | 38.54997 | 114.39609 | 35329 ft | 462 kts | 249° |
| 2026-04-30 03:14 | 38.53210 | 114.34682 | 35811 ft | 459 kts | 249° |
| 2026-04-30 03:14 | 38.51870 | 114.30993 | 36157 ft | 457 kts | 249° |
| 2026-04-30 03:15 | 38.50532 | 114.27317 | 36493 ft | 456 kts | 249° |
| 2026-04-30 03:15 | 38.49196 | 114.23651 | 36827 ft | 454 kts | 249° |
| 2026-04-30 03:15 | 38.48298 | 114.21187 | 37039 ft | 453 kts | 249° |
| 2026-04-30 03:15 | 38.46970 | 114.17554 | 37335 ft | 451 kts | 249° |
| 2026-04-30 03:16 | 38.45647 | 114.13933 | 37654 ft | 449 kts | 249° |
| 2026-04-30 03:16 | 38.44342 | 114.10370 | 37938 ft | 448 kts | 249° |
| 2026-04-30 03:16 | 38.43026 | 114.06777 | 38101 ft | 447 kts | 249° |
| 2026-04-30 03:16 | 38.41709 | 114.03189 | 38117 ft | 445 kts | 249° |
| 2026-04-30 03:17 | 38.39084 | 113.96035 | 38120 ft | 445 kts | 249° |
| 2026-04-30 03:17 | 38.36459 | 113.88895 | 38119 ft | 445 kts | 249° |
| 2026-04-30 03:18 | 38.33823 | 113.81744 | 38121 ft | 446 kts | 249° |
| 2026-04-30 03:18 | 38.31145 | 113.74612 | 38123 ft | 446 kts | 249° |
| 2026-04-30 03:19 | 38.28458 | 113.67510 | 38119 ft | 446 kts | 249° |
| 2026-04-30 03:19 | 38.25766 | 113.60397 | 38119 ft | 445 kts | 249° |
| 2026-04-30 03:20 | 38.23080 | 113.53310 | 38118 ft | 445 kts | 249° |
| 2026-04-30 03:20 | 38.20401 | 113.46257 | 38141 ft | 446 kts | 250° |
| 2026-04-30 03:21 | 38.17687 | 113.39125 | 38143 ft | 448 kts | 250° |
| 2026-04-30 03:21 | 38.14982 | 113.31988 | 38148 ft | 447 kts | 250° |
| 2026-04-30 03:22 | 38.12331 | 113.24846 | 38159 ft | 448 kts | 250° |
| 2026-04-30 03:22 | 38.09665 | 113.17688 | 38164 ft | 448 kts | 250° |
| 2026-04-30 03:23 | 38.06984 | 113.10528 | 38163 ft | 448 kts | 250° |
| 2026-04-30 03:23 | 38.04323 | 113.03442 | 38166 ft | 447 kts | 250° |
| 2026-04-30 03:24 | 38.01646 | 112.96330 | 38155 ft | 447 kts | 250° |
| 2026-04-30 03:24 | 37.98965 | 112.89221 | 38159 ft | 446 kts | 250° |
| 2026-04-30 03:25 | 37.96286 | 112.82131 | 38165 ft | 446 kts | 250° |
| 2026-04-30 03:25 | 37.93585 | 112.74998 | 38197 ft | 450 kts | 250° |
| 2026-04-30 03:26 | 37.90870 | 112.67855 | 38192 ft | 448 kts | 250° |
| 2026-04-30 03:26 | 37.88178 | 112.60786 | 38195 ft | 449 kts | 250° |
| 2026-04-30 03:27 | 37.85350 | 112.53699 | 38197 ft | 451 kts | 248° |
| 2026-04-30 03:27 | 37.82348 | 112.46735 | 38196 ft | 450 kts | 247° |
| 2026-04-30 03:28 | 37.79370 | 112.39778 | 38191 ft | 449 kts | 248° |
| 2026-04-30 03:28 | 37.76431 | 112.32806 | 38187 ft | 448 kts | 249° |
| 2026-04-30 03:29 | 37.73764 | 112.25769 | 38181 ft | 446 kts | 251° |
| 2026-04-30 03:29 | 37.71102 | 112.18693 | 38175 ft | 445 kts | 250° |
| 2026-04-30 03:30 | 37.68409 | 112.11644 | 38169 ft | 445 kts | 250° |
| 2026-04-30 03:30 | 37.65710 | 112.04624 | 38171 ft | 443 kts | 250° |
| 2026-04-30 03:31 | 37.63028 | 111.97669 | 38169 ft | 443 kts | 250° |
| 2026-04-30 03:31 | 37.60329 | 111.90681 | 38172 ft | 442 kts | 250° |
| 2026-04-30 03:32 | 37.57628 | 111.83700 | 38177 ft | 442 kts | 250° |
| 2026-04-30 03:32 | 37.54925 | 111.76737 | 38166 ft | 442 kts | 250° |
| 2026-04-30 03:33 | 37.52213 | 111.69783 | 38171 ft | 443 kts | 250° |
| 2026-04-30 03:33 | 37.49074 | 111.63077 | 38168 ft | 447 kts | 242° |
| 2026-04-30 03:34 | 37.45601 | 111.56647 | 38151 ft | 445 kts | 243° |
| 2026-04-30 03:34 | 37.42134 | 111.50195 | 38175 ft | 447 kts | 243° |
| 2026-04-30 03:35 | 37.38652 | 111.43727 | 38166 ft | 445 kts | 243° |
| 2026-04-30 03:35 | 37.35171 | 111.37278 | 38169 ft | 445 kts | 243° |
| 2026-04-30 03:36 | 37.31695 | 111.30847 | 38174 ft | 444 kts | 243° |
| 2026-04-30 03:36 | 37.28224 | 111.24441 | 38170 ft | 444 kts | 243° |
| 2026-04-30 03:37 | 37.24743 | 111.18026 | 38172 ft | 444 kts | 243° |
| 2026-04-30 03:37 | 37.21270 | 111.11641 | 38171 ft | 441 kts | 243° |
| 2026-04-30 03:38 | 37.17809 | 111.05285 | 38163 ft | 441 kts | 243° |
| 2026-04-30 03:38 | 37.14346 | 110.98939 | 38165 ft | 441 kts | 243° |
| 2026-04-30 03:39 | 37.10881 | 110.92603 | 38168 ft | 440 kts | 243° |
| 2026-04-30 03:39 | 37.07436 | 110.86314 | 38168 ft | 441 kts | 243° |
| 2026-04-30 03:40 | 37.03966 | 110.79992 | 38170 ft | 441 kts | 243° |
| 2026-04-30 03:40 | 37.00488 | 110.73667 | 38164 ft | 441 kts | 243° |
| 2026-04-30 03:41 | 36.97059 | 110.67330 | 38157 ft | 438 kts | 244° |
| 2026-04-30 03:41 | 36.93691 | 110.60982 | 38158 ft | 437 kts | 244° |
| 2026-04-30 03:42 | 36.90311 | 110.54647 | 38150 ft | 438 kts | 244° |
| 2026-04-30 03:42 | 36.86937 | 110.48346 | 38144 ft | 441 kts | 244° |
| 2026-04-30 03:43 | 36.83533 | 110.42014 | 38145 ft | 437 kts | 244° |
| 2026-04-30 03:43 | 36.80141 | 110.35713 | 38149 ft | 437 kts | 244° |
| 2026-04-30 03:44 | 36.76742 | 110.29403 | 38139 ft | 438 kts | 244° |
| 2026-04-30 03:44 | 36.73343 | 110.23110 | 38139 ft | 436 kts | 244° |
| 2026-04-30 03:45 | 36.69966 | 110.16871 | 38141 ft | 437 kts | 244° |
| 2026-04-30 03:45 | 36.66568 | 110.10605 | 38140 ft | 436 kts | 244° |
| 2026-04-30 03:46 | 36.63173 | 110.04355 | 38143 ft | 436 kts | 244° |
| 2026-04-30 03:46 | 36.59767 | 109.98093 | 38142 ft | 436 kts | 244° |
| 2026-04-30 03:47 | 36.56364 | 109.91850 | 38144 ft | 435 kts | 244° |
| 2026-04-30 03:47 | 36.52960 | 109.85620 | 38145 ft | 435 kts | 244° |
| 2026-04-30 03:48 | 36.49579 | 109.79442 | 38138 ft | 435 kts | 244° |
| 2026-04-30 03:48 | 36.46179 | 109.73241 | 38138 ft | 433 kts | 244° |
| 2026-04-30 03:49 | 36.42794 | 109.67077 | 38139 ft | 432 kts | 244° |
| 2026-04-30 03:49 | 36.39404 | 109.60913 | 38136 ft | 431 kts | 244° |
| 2026-04-30 03:50 | 36.36014 | 109.54762 | 38142 ft | 432 kts | 244° |
| 2026-04-30 03:50 | 36.32626 | 109.48625 | 38140 ft | 431 kts | 244° |
| 2026-04-30 03:51 | 36.29000 | 109.42672 | 38144 ft | 441 kts | 235° |
| 2026-04-30 03:51 | 36.24205 | 109.37796 | 38153 ft | 459 kts | 220° |
| 2026-04-30 03:52 | 36.18435 | 109.34180 | 38155 ft | 466 kts | 214° |
| 2026-04-30 03:52 | 36.12595 | 109.30694 | 38158 ft | 466 kts | 214° |
| 2026-04-30 03:53 | 36.06761 | 109.27206 | 38155 ft | 465 kts | 214° |
| 2026-04-30 03:53 | 36.00933 | 109.23726 | 38154 ft | 464 kts | 214° |
| 2026-04-30 03:54 | 35.95114 | 109.20256 | 38152 ft | 464 kts | 214° |
| 2026-04-30 03:54 | 35.89285 | 109.16781 | 38149 ft | 466 kts | 215° |
| 2026-04-30 03:55 | 35.83408 | 109.13441 | 38150 ft | 472 kts | 210° |
| 2026-04-30 03:55 | 35.77206 | 109.10686 | 38163 ft | 474 kts | 208° |
| 2026-04-30 03:56 | 35.70999 | 109.07932 | 38154 ft | 474 kts | 208° |
| 2026-04-30 03:56 | 35.64790 | 109.05173 | 38156 ft | 475 kts | 209° |
| 2026-04-30 03:57 | 35.58569 | 109.02414 | 38159 ft | 475 kts | 209° |
| 2026-04-30 03:57 | 35.52346 | 108.99658 | 38167 ft | 476 kts | 209° |
| 2026-04-30 03:58 | 35.46118 | 108.96905 | 38165 ft | 475 kts | 209° |
| 2026-04-30 03:58 | 35.39891 | 108.94156 | 38168 ft | 476 kts | 209° |
| 2026-04-30 03:59 | 35.33662 | 108.91411 | 38169 ft | 476 kts | 209° |
| 2026-04-30 03:59 | 35.27467 | 108.88685 | 38176 ft | 476 kts | 209° |
| 2026-04-30 04:00 | 35.21480 | 108.86054 | 38185 ft | 478 kts | 209° |
| 2026-04-30 04:00 | 35.15218 | 108.83309 | 38168 ft | 478 kts | 209° |
| 2026-04-30 04:01 | 35.08961 | 108.80572 | 38185 ft | 477 kts | 209° |
| 2026-04-30 04:01 | 35.03757 | 108.78296 | 38186 ft | 478 kts | 209° |
| 2026-04-30 04:02 | 34.97487 | 108.75559 | 38185 ft | 477 kts | 209° |
| 2026-04-30 04:02 | 34.91227 | 108.72831 | 38180 ft | 477 kts | 210° |
| 2026-04-30 04:03 | 34.85946 | 108.70533 | 38176 ft | 477 kts | 210° |
| 2026-04-30 04:03 | 34.79698 | 108.67819 | 38168 ft | 476 kts | 210° |
| 2026-04-30 04:04 | 34.73455 | 108.65110 | 38175 ft | 476 kts | 210° |
| 2026-04-30 04:04 | 34.67202 | 108.62399 | 38181 ft | 478 kts | 210° |
| 2026-04-30 04:05 | 34.60940 | 108.59691 | 38189 ft | 476 kts | 210° |
| 2026-04-30 04:05 | 34.54698 | 108.56996 | 38190 ft | 475 kts | 210° |
| 2026-04-30 04:06 | 34.48465 | 108.54308 | 38189 ft | 475 kts | 210° |
| 2026-04-30 04:06 | 34.42274 | 108.51645 | 38184 ft | 474 kts | 210° |
| 2026-04-30 04:07 | 34.36068 | 108.48981 | 38165 ft | 472 kts | 210° |
| 2026-04-30 04:08 | 34.26812 | 108.45012 | 38146 ft | 470 kts | 211° |
| 2026-04-30 04:08 | 34.20613 | 108.42355 | 38157 ft | 473 kts | 211° |
| 2026-04-30 04:09 | 34.14414 | 108.39709 | 38158 ft | 472 kts | 211° |
| 2026-04-30 04:09 | 34.08219 | 108.37067 | 38161 ft | 471 kts | 211° |
| 2026-04-30 04:10 | 34.02041 | 108.34436 | 38167 ft | 471 kts | 211° |
| 2026-04-30 04:10 | 33.95898 | 108.31822 | 38181 ft | 470 kts | 211° |
| 2026-04-30 04:11 | 33.89750 | 108.29213 | 38236 ft | 463 kts | 211° |
| 2026-04-30 04:11 | 33.83608 | 108.26601 | 38191 ft | 471 kts | 211° |
| 2026-04-30 04:12 | 33.77437 | 108.23993 | 38193 ft | 469 kts | 211° |
| 2026-04-30 04:12 | 33.71266 | 108.21386 | 38180 ft | 468 kts | 211° |
| 2026-04-30 04:13 | 33.65107 | 108.18779 | 38197 ft | 469 kts | 211° |
| 2026-04-30 04:13 | 33.58980 | 108.16201 | 38202 ft | 467 kts | 210° |
| 2026-04-30 04:14 | 33.52835 | 108.13620 | 38210 ft | 468 kts | 210° |
| 2026-04-30 04:14 | 33.46684 | 108.11035 | 38211 ft | 468 kts | 210° |
| 2026-04-30 04:15 | 33.40558 | 108.08468 | 38199 ft | 466 kts | 210° |
| 2026-04-30 04:15 | 33.34298 | 108.06185 | 38200 ft | 471 kts | 206° |
| 2026-04-30 04:16 | 33.28065 | 108.04027 | 38193 ft | 468 kts | 207° |
| 2026-04-30 04:16 | 33.21805 | 108.01809 | 38189 ft | 468 kts | 207° |
| 2026-04-30 04:17 | 33.15569 | 107.99587 | 38181 ft | 467 kts | 207° |
| 2026-04-30 04:17 | 33.09337 | 107.97370 | 38184 ft | 466 kts | 207° |
| 2026-04-30 04:18 | 33.03504 | 107.95297 | 38179 ft | 464 kts | 207° |
| 2026-04-30 04:18 | 32.97312 | 107.93098 | 38181 ft | 464 kts | 207° |
| 2026-04-30 04:19 | 32.91131 | 107.90908 | 38180 ft | 462 kts | 207° |
| 2026-04-30 04:19 | 32.84948 | 107.88721 | 38185 ft | 463 kts | 207° |
| 2026-04-30 04:20 | 32.78796 | 107.86549 | 38185 ft | 461 kts | 207° |
| 2026-04-30 04:20 | 32.72650 | 107.84383 | 38207 ft | 458 kts | 207° |
| 2026-04-30 04:21 | 32.66529 | 107.82224 | 38192 ft | 458 kts | 207° |
| 2026-04-30 04:21 | 32.60456 | 107.80083 | 38186 ft | 458 kts | 207° |
| 2026-04-30 04:22 | 32.54342 | 107.77937 | 38199 ft | 458 kts | 206° |
| 2026-04-30 04:22 | 32.48249 | 107.75801 | 38178 ft | 456 kts | 207° |
| 2026-04-30 04:23 | 32.42163 | 107.73670 | 38191 ft | 456 kts | 206° |
| 2026-04-30 04:23 | 32.36092 | 107.71544 | 38197 ft | 456 kts | 206° |
| 2026-04-30 04:24 | 32.30000 | 107.69415 | 38204 ft | 456 kts | 206° |
| 2026-04-30 04:24 | 32.23932 | 107.67277 | 38191 ft | 452 kts | 208° |
| 2026-04-30 04:25 | 32.18265 | 107.64376 | 38198 ft | 438 kts | 219° |
| 2026-04-30 04:25 | 32.13267 | 107.60496 | 38198 ft | 423 kts | 227° |
| 2026-04-30 04:26 | 32.08593 | 107.56311 | 38201 ft | 424 kts | 226° |
| 2026-04-30 04:26 | 32.03846 | 107.52099 | 38197 ft | 427 kts | 226° |
| 2026-04-30 04:27 | 31.99104 | 107.47911 | 38198 ft | 426 kts | 226° |
| 2026-04-30 04:27 | 31.94357 | 107.43721 | 38197 ft | 427 kts | 226° |
| 2026-04-30 04:28 | 31.89603 | 107.39531 | 38200 ft | 427 kts | 226° |
| 2026-04-30 04:28 | 31.84845 | 107.35345 | 38207 ft | 426 kts | 226° |
| 2026-04-30 04:29 | 31.80050 | 107.31224 | 38186 ft | 432 kts | 222° |
| 2026-04-30 04:29 | 31.74706 | 107.27824 | 38194 ft | 443 kts | 212° |
| 2026-04-30 04:30 | 31.69086 | 107.24952 | 38190 ft | 444 kts | 212° |
| 2026-04-30 04:30 | 31.63419 | 107.22031 | 38194 ft | 444 kts | 212° |
| 2026-04-30 04:31 | 31.57753 | 107.19107 | 38192 ft | 445 kts | 212° |
| 2026-04-30 04:31 | 31.52079 | 107.16185 | 38194 ft | 445 kts | 212° |
| 2026-04-30 04:32 | 31.46422 | 107.13275 | 38186 ft | 444 kts | 212° |
| 2026-04-30 04:32 | 31.40768 | 107.10370 | 38181 ft | 443 kts | 212° |
| 2026-04-30 04:33 | 31.35156 | 107.07491 | 38175 ft | 443 kts | 212° |
| 2026-04-30 04:33 | 31.29513 | 107.04600 | 38180 ft | 443 kts | 212° |
| 2026-04-30 04:34 | 31.23867 | 107.01709 | 38187 ft | 442 kts | 211° |
| 2026-04-30 04:34 | 31.18199 | 106.98808 | 38189 ft | 445 kts | 211° |
| 2026-04-30 04:35 | 31.12539 | 106.95925 | 38195 ft | 443 kts | 211° |
| 2026-04-30 04:35 | 31.06884 | 106.93043 | 38195 ft | 443 kts | 211° |
| 2026-04-30 04:36 | 31.01275 | 106.90186 | 38192 ft | 443 kts | 211° |
| 2026-04-30 04:36 | 30.95624 | 106.87314 | 38194 ft | 442 kts | 211° |
| 2026-04-30 04:37 | 30.89988 | 106.84452 | 38193 ft | 441 kts | 211° |
| 2026-04-30 04:37 | 30.84393 | 106.81614 | 37876 ft | 441 kts | 211° |
| 2026-04-30 04:37 | 30.81583 | 106.80192 | 37609 ft | 439 kts | 211° |
| 2026-04-30 04:38 | 30.78781 | 106.78773 | 37345 ft | 439 kts | 211° |
| 2026-04-30 04:38 | 30.75979 | 106.77355 | 37081 ft | 439 kts | 211° |
| 2026-04-30 04:38 | 30.73167 | 106.75932 | 36817 ft | 439 kts | 211° |
| 2026-04-30 04:38 | 30.70357 | 106.74511 | 36324 ft | 441 kts | 211° |
| 2026-04-30 04:39 | 30.67531 | 106.73082 | 35581 ft | 444 kts | 210° |
| 2026-04-30 04:39 | 30.64691 | 106.71647 | 34426 ft | 447 kts | 210° |
| 2026-04-30 04:39 | 30.61818 | 106.70196 | 33277 ft | 450 kts | 210° |
| 2026-04-30 04:39 | 30.58872 | 106.68920 | 32520 ft | 453 kts | 205° |
| 2026-04-30 04:40 | 30.55887 | 106.67778 | 31884 ft | 449 kts | 205° |
| 2026-04-30 04:40 | 30.52899 | 106.66620 | 30752 ft | 457 kts | 204° |
| 2026-04-30 04:40 | 30.49852 | 106.65431 | 29676 ft | 464 kts | 204° |
| 2026-04-30 04:40 | 30.46786 | 106.64241 | 28847 ft | 462 kts | 204° |
| 2026-04-30 04:41 | 30.43762 | 106.63074 | 28353 ft | 454 kts | 204° |
| 2026-04-30 04:41 | 30.40805 | 106.61949 | 28038 ft | 442 kts | 202° |
| 2026-04-30 04:41 | 30.37915 | 106.60929 | 27326 ft | 441 kts | 201° |
| 2026-04-30 04:41 | 30.34975 | 106.59930 | 26704 ft | 437 kts | 201° |
| 2026-04-30 04:42 | 30.32056 | 106.58941 | 25979 ft | 437 kts | 201° |
| 2026-04-30 04:42 | 30.29149 | 106.57947 | 25296 ft | 435 kts | 201° |
| 2026-04-30 04:42 | 30.26255 | 106.56952 | 24638 ft | 433 kts | 201° |
| 2026-04-30 04:42 | 30.23360 | 106.55952 | 23947 ft | 432 kts | 201° |
| 2026-04-30 04:43 | 30.20475 | 106.54953 | 23210 ft | 431 kts | 201° |
| 2026-04-30 04:43 | 30.17610 | 106.53962 | 22526 ft | 427 kts | 200° |
| 2026-04-30 04:43 | 30.14773 | 106.52980 | 21804 ft | 425 kts | 200° |
| 2026-04-30 04:43 | 30.11954 | 106.52005 | 21050 ft | 424 kts | 199° |
| 2026-04-30 04:44 | 30.09142 | 106.51034 | 20538 ft | 417 kts | 199° |
| 2026-04-30 04:44 | 30.06464 | 106.50114 | 20288 ft | 395 kts | 199° |
| 2026-04-30 04:44 | 30.03898 | 106.49235 | 20096 ft | 375 kts | 199° |
| 2026-04-30 04:44 | 30.01458 | 106.48399 | 19909 ft | 356 kts | 199° |
| 2026-04-30 04:45 | 29.99145 | 106.47604 | 19760 ft | 338 kts | 199° |
| 2026-04-30 04:45 | 29.96954 | 106.46851 | 19602 ft | 321 kts | 199° |
| 2026-04-30 04:45 | 29.94837 | 106.46122 | 19188 ft | 315 kts | 199° |
| 2026-04-30 04:45 | 29.92682 | 106.45693 | 18592 ft | 317 kts | 179° |
| 2026-04-30 04:46 | 29.90545 | 106.46256 | 18027 ft | 316 kts | 154° |
| 2026-04-30 04:46 | 29.88837 | 106.47764 | 17800 ft | 313 kts | 130° |
| 2026-04-30 04:46 | 29.87783 | 106.49956 | 17558 ft | 314 kts | 108° |
| 2026-04-30 04:46 | 29.87348 | 106.52405 | 17224 ft | 312 kts | 88° |
| 2026-04-30 04:47 | 29.87769 | 106.54819 | 16850 ft | 308 kts | 64° |
| 2026-04-30 04:47 | 29.89002 | 106.56799 | 16452 ft | 304 kts | 39° |
| 2026-04-30 04:47 | 29.90149 | 106.57698 | 16121 ft | 300 kts | 23° |
| 2026-04-30 04:47 | 29.92777 | 106.58634 | 15326 ft | 298 kts | 13° |
| 2026-04-30 04:48 | 29.94775 | 106.59218 | 14943 ft | 295 kts | 13° |
| 2026-04-30 04:48 | 29.96784 | 106.59835 | 14625 ft | 300 kts | 14° |
| 2026-04-30 04:48 | 29.98779 | 106.60485 | 14220 ft | 297 kts | 15° |
| 2026-04-30 04:48 | 30.00093 | 106.60928 | 13874 ft | 296 kts | 15° |
| 2026-04-30 04:49 | 30.02720 | 106.61834 | 13243 ft | 290 kts | 16° |
| 2026-04-30 04:49 | 30.04656 | 106.62510 | 12856 ft | 292 kts | 16° |
| 2026-04-30 04:49 | 30.06566 | 106.63176 | 12765 ft | 281 kts | 16° |
| 2026-04-30 04:49 | 30.07791 | 106.63606 | 12694 ft | 274 kts | 16° |
| 2026-04-30 04:50 | 30.09580 | 106.64230 | 12597 ft | 262 kts | 15° |
| 2026-04-30 04:50 | 30.11294 | 106.64825 | 12451 ft | 253 kts | 15° |
| 2026-04-30 04:50 | 30.12975 | 106.65408 | 12132 ft | 251 kts | 16° |
| 2026-04-30 04:50 | 30.14637 | 106.65987 | 11746 ft | 248 kts | 15° |
| 2026-04-30 04:51 | 30.16290 | 106.66565 | 11322 ft | 247 kts | 15° |
| 2026-04-30 04:51 | 30.17927 | 106.67138 | 10896 ft | 245 kts | 16° |
| 2026-04-30 04:51 | 30.19415 | 106.68057 | 10467 ft | 245 kts | 44° |
| 2026-04-30 04:51 | 30.20280 | 106.69693 | 10228 ft | 235 kts | 77° |
| 2026-04-30 04:52 | 30.20270 | 106.71491 | 10051 ft | 218 kts | 109° |
| 2026-04-30 04:52 | 30.19798 | 106.73082 | 9704 ft | 211 kts | 111° |
| 2026-04-30 04:52 | 30.19322 | 106.74684 | 9235 ft | 210 kts | 110° |
| 2026-04-30 04:52 | 30.18869 | 106.76291 | 8785 ft | 209 kts | 110° |
| 2026-04-30 04:53 | 30.18440 | 106.77875 | 8410 ft | 202 kts | 110° |
| 2026-04-30 04:53 | 30.17714 | 106.79226 | 8291 ft | 202 kts | 142° |
| 2026-04-30 04:53 | 30.16459 | 106.79832 | 8267 ft | 193 kts | 177° |
| 2026-04-30 04:53 | 30.15183 | 106.79570 | 8108 ft | 184 kts | 198° |
| 2026-04-30 04:54 | 30.13956 | 106.79160 | 7837 ft | 182 kts | 194° |
| 2026-04-30 04:54 | 30.12729 | 106.78810 | 7625 ft | 182 kts | 194° |
| 2026-04-30 04:54 | 30.11500 | 106.78413 | 7398 ft | 183 kts | 196° |
| 2026-04-30 04:54 | 30.10283 | 106.77989 | 7176 ft | 182 kts | 196° |
| 2026-04-30 04:55 | 30.09072 | 106.77562 | 6974 ft | 182 kts | 196° |
| 2026-04-30 04:55 | 30.07874 | 106.77137 | 6987 ft | 178 kts | 196° |
| 2026-04-30 04:55 | 30.06668 | 106.76712 | 7060 ft | 183 kts | 196° |
| 2026-04-30 04:55 | 30.05456 | 106.76290 | 7145 ft | 183 kts | 196° |
| 2026-04-30 04:56 | 30.04227 | 106.75857 | 7253 ft | 185 kts | 196° |
| 2026-04-30 04:56 | 30.03000 | 106.75429 | 7221 ft | 183 kts | 196° |
| 2026-04-30 04:56 | 30.01791 | 106.75008 | 7155 ft | 184 kts | 196° |
| 2026-04-30 04:56 | 30.00545 | 106.74573 | 7041 ft | 184 kts | 196° |
| 2026-04-30 04:57 | 29.99327 | 106.74140 | 6873 ft | 182 kts | 195° |
| 2026-04-30 04:57 | 29.98130 | 106.73724 | 6692 ft | 182 kts | 195° |
| 2026-04-30 04:57 | 29.96919 | 106.73298 | 6472 ft | 181 kts | 195° |
| 2026-04-30 04:57 | 29.95711 | 106.72874 | 6254 ft | 180 kts | 195° |
| 2026-04-30 04:58 | 29.94521 | 106.72463 | 6037 ft | 181 kts | 196° |
| 2026-04-30 04:58 | 29.93302 | 106.72031 | 5820 ft | 186 kts | 195° |
| 2026-04-30 04:58 | 29.92056 | 106.71600 | 5576 ft | 189 kts | 195° |
| 2026-04-30 04:58 | 29.90814 | 106.71162 | 5296 ft | 184 kts | 195° |
| 2026-04-30 04:59 | 29.89615 | 106.70743 | 5052 ft | 178 kts | 196° |
| 2026-04-30 04:59 | 29.88431 | 106.70329 | 4859 ft | 179 kts | 195° |
| 2026-04-30 04:59 | 29.87226 | 106.69908 | 4586 ft | 181 kts | 195° |
| 2026-04-30 04:59 | 29.86026 | 106.69486 | 4364 ft | 181 kts | 195° |
| 2026-04-30 05:00 | 29.84821 | 106.69069 | 4127 ft | 179 kts | 195° |
| 2026-04-30 05:00 | 29.83657 | 106.68661 | 3884 ft | 171 kts | 194° |
| 2026-04-30 05:00 | 29.82560 | 106.68275 | 3674 ft | 161 kts | 194° |
| 2026-04-30 05:00 | 29.81530 | 106.67917 | 3444 ft | 147 kts | 195° |
| 2026-04-30 05:01 | 29.80607 | 106.67593 | 3299 ft | 135 kts | 194° |
| 2026-04-30 05:01 | 29.79726 | 106.67286 | 3095 ft | 132 kts | 193° |
| 2026-04-30 05:01 | 29.78843 | 106.66978 | 2920 ft | 132 kts | 194° |
| 2026-04-30 05:01 | 29.77923 | 106.66651 | 2627 ft | 140 kts | 194° |
| 2026-04-30 05:02 | 29.76987 | 106.66322 | 2346 ft | 139 kts | 194° |
| 2026-04-30 05:02 | 29.76071 | 106.65994 | 2007 ft | 135 kts | 194° |
| 2026-04-30 05:02 | 29.75187 | 106.65674 | 1731 ft | 133 kts | 194° |
| 2026-04-30 05:02 | 29.74303 | 106.65363 | 1580 ft | 133 kts | 194° |
| 2026-04-30 05:03 | 29.73370 | 106.65056 | 1420 ft | 148 kts | 193° |
| 2026-04-30 05:03 | 29.72374 | 106.64707 | 1357 ft | 139 kts | 195° |
| 2026-04-30 05:03 | 29.71713 | 106.64494 | 1356 ft | 56 kts | 196° |
| 2026-04-30 05:03 | 29.71442 | 106.64403 | 1357 ft | 39 kts | 198° |
| 2026-04-30 05:04 | 29.71188 | 106.64310 | 1359 ft | 35 kts | 196° |
| 2026-04-30 05:04 | 29.71117 | 106.64287 | 1358 ft | 11 kts | 195° |
| 2026-04-30 05:04 | 29.71057 | 106.64343 | 1357 ft | 14 kts | 108° |
| 2026-04-30 05:04 | 29.71028 | 106.64462 | 1357 ft | 17 kts | 106° |
| 2026-04-30 05:05 | 29.71024 | 106.64551 | 1356 ft | 6 kts | 42° |
| 2026-04-30 05:05 | 29.71067 | 106.64567 | 1357 ft | 9 kts | 19° |
| 2026-04-30 05:05 | 29.71129 | 106.64611 | 1359 ft | 12 kts | 39° |
| 2026-04-30 05:06 | 29.71271 | 106.64757 | 1355 ft | 17 kts | 41° |
| 2026-04-30 05:06 | 29.71332 | 106.64808 | 1357 ft | 1 kts | 30° |
| 2026-04-30 05:06 | 29.71361 | 106.64826 | 1355 ft | 8 kts | 30° |
| 2026-04-30 05:06 | 29.71373 | 106.64895 | 1354 ft | 9 kts | 103° |
| 2026-04-30 05:07 | 29.71360 | 106.64940 | 1353 ft | 0 kts | 108° |